Time;durP1;ratioP1;P1;durP2;ratioP2;P2;SDS_P1;SDS_P2;PMS_P1;PMS_P2;Temp;Humidity;BMP_temperature;BMP_pressure;BME280_temperature;BME280_humidity;BME280_pressure;Samples;Min_cycle;Max_cycle;Signal;HPM_P1;HPM_P2
2021/12/03 00:01:52;;;;;;;1.48;1.27;;;;;;;4.58;100.00;99190.53;6212436;22;20346;-57
2021/12/03 00:04:55;;;;;;;2.17;1.45;;;;;;;4.61;100.00;99175.84;6210768;22;20032;-57
2021/12/03 00:07:59;;;;;;;3.00;1.27;;;;;;;4.61;100.00;99170.31;6213832;23;20102;-57
2021/12/03 00:11:03;;;;;;;0.77;0.77;;;;;;;4.60;100.00;99157.78;6227211;22;20078;-57
2021/12/03 00:14:06;;;;;;;3.40;1.05;;;;;;;4.59;100.00;99149.97;6213506;23;20020;-56
2021/12/03 00:17:09;;;;;;;0.70;0.65;;;;;;;4.56;100.00;99146.13;6213478;23;20143;-56
2021/12/03 00:20:14;;;;;;;4.50;1.48;;;;;;;4.53;100.00;99138.72;6212333;22;20078;-56
2021/12/03 00:23:18;;;;;;;0.70;0.70;;;;;;;4.47;100.00;99137.00;6212958;23;20091;-56
2021/12/03 00:26:22;;;;;;;2.53;0.40;;;;;;;4.43;100.00;99134.41;6213323;22;20051;-55
2021/12/03 00:29:25;;;;;;;0.80;0.80;;;;;;;4.45;100.00;99129.22;6212479;23;20027;-55
2021/12/03 00:32:28;;;;;;;0.52;0.52;;;;;;;4.48;100.00;99117.25;6213422;23;20489;-55
2021/12/03 00:35:33;;;;;;;0.88;0.88;;;;;;;4.57;100.00;99109.03;6212191;22;20067;-55
2021/12/03 00:38:44;;;;;;;0.85;0.85;;;;;;;4.72;100.00;99097.47;6213075;23;20048;-55
2021/12/03 00:41:55;;;;;;;0.70;0.70;;;;;;;4.84;100.00;99082.78;6212865;22;20424;-55
2021/12/03 00:44:58;;;;;;;0.77;0.77;;;;;;;4.84;100.00;99080.78;6211679;22;20051;-55
2021/12/03 00:48:03;;;;;;;0.73;0.40;;;;;;;4.83;100.00;99062.69;6213658;23;20097;-55
2021/12/03 00:51:07;;;;;;;0.30;0.30;;;;;;;4.75;100.00;99055.94;6212818;22;20027;-55
2021/12/03 00:54:13;;;;;;;0.30;0.30;;;;;;;4.72;100.00;99047.81;6209291;23;20078;-56
2021/12/03 00:57:16;;;;;;;0.80;0.80;;;;;;;4.71;100.00;99041.53;6213593;23;20067;-56
2021/12/03 01:00:23;;;;;;;0.68;0.68;;;;;;;4.70;100.00;99030.97;6213218;22;20086;-55
2021/12/03 01:03:27;;;;;;;0.20;0.20;;;;;;;4.71;100.00;99029.72;6212770;23;20106;-55
2021/12/03 01:06:30;;;;;;;0.22;0.22;;;;;;;4.75;100.00;99030.34;6213319;23;20361;-55
2021/12/03 01:09:33;;;;;;;0.50;0.50;;;;;;;4.73;100.00;99024.53;6212545;22;20369;-55
2021/12/03 01:12:37;;;;;;;0.70;0.70;;;;;;;4.70;100.00;99019.94;6207688;23;20046;-55
2021/12/03 01:15:41;;;;;;;0.60;0.60;;;;;;;4.76;100.00;99004.31;6210668;22;20027;-55
2021/12/03 01:18:45;;;;;;;0.43;0.43;;;;;;;4.80;100.00;99008.47;6212931;23;20102;-55
2021/12/03 01:21:48;;;;;;;0.50;0.50;;;;;;;4.84;100.00;99005.53;6212959;22;20027;-55
2021/12/03 01:24:51;;;;;;;0.40;0.40;;;;;;;4.85;100.00;99007.09;6213402;22;20610;-55
2021/12/03 01:27:55;;;;;;;0.30;0.30;;;;;;;4.89;100.00;99002.97;6211934;23;20499;-55
2021/12/03 01:30:59;;;;;;;0.40;0.40;;;;;;;4.89;100.00;98996.69;6213053;22;20103;-54
2021/12/03 01:34:03;;;;;;;0.38;0.35;;;;;;;4.84;100.00;98992.53;6213162;23;20062;-55
2021/12/03 01:37:06;;;;;;;0.40;0.40;;;;;;;4.85;100.00;98979.50;6213401;23;20460;-55
2021/12/03 01:40:14;;;;;;;0.13;0.13;;;;;;;4.93;100.00;98983.50;6212937;22;20027;-55
2021/12/03 01:43:23;;;;;;;0.20;0.20;;;;;;;4.99;100.00;98978.91;6213074;23;20338;-55
2021/12/03 01:46:26;;;;;;;0.25;0.25;;;;;;;4.99;100.00;98959.59;6212561;23;20023;-54
2021/12/03 01:49:29;;;;;;;0.30;0.30;;;;;;;4.98;100.00;98950.53;6212739;23;20036;-55
2021/12/03 01:52:32;;;;;;;0.10;0.10;;;;;;;5.02;100.00;98936.59;6211666;23;20074;-55
2021/12/03 01:55:36;;;;;;;0.30;0.30;;;;;;;5.01;100.00;98929.53;6211991;22;20051;-56
2021/12/03 01:58:40;;;;;;;0.40;0.40;;;;;;;5.04;100.00;98921.13;6212733;23;20074;-55
2021/12/03 02:01:43;;;;;;;0.30;0.30;;;;;;;5.15;100.00;98915.13;6212724;22;20028;-55
2021/12/03 02:04:47;;;;;;;0.17;0.17;;;;;;;5.03;100.00;98907.78;6212964;22;20108;-55
2021/12/03 02:07:50;;;;;;;0.60;0.60;;;;;;;5.02;100.00;98901.50;6215342;23;20079;-55
2021/12/03 02:10:54;;;;;;;0.52;0.50;;;;;;;4.91;100.00;98890.16;6214504;22;20027;-55
2021/12/03 02:13:57;;;;;;;0.40;0.40;;;;;;;4.85;100.00;98892.00;6214693;23;20090;-55
2021/12/03 02:17:00;;;;;;;0.30;0.30;;;;;;;5.07;100.00;98880.78;6214303;23;20079;-55
2021/12/03 02:20:06;;;;;;;0.40;0.40;;;;;;;5.13;100.00;98865.91;6214652;22;20443;-55
2021/12/03 02:23:10;;;;;;;3.30;0.40;;;;;;;5.12;100.00;98869.13;6214533;23;20031;-55
2021/12/03 02:26:14;;;;;;;0.40;0.40;;;;;;;5.10;100.00;98869.59;6214787;23;20027;-55
2021/12/03 02:29:17;;;;;;;0.20;0.20;;;;;;;5.10;100.00;98866.84;6214561;23;20489;-55
2021/12/03 02:32:20;;;;;;;0.10;0.10;;;;;;;5.08;100.00;98860.25;6214395;23;20024;-55
2021/12/03 02:35:25;;;;;;;1.00;0.57;;;;;;;5.10;100.00;98852.28;6214376;22;20031;-55
2021/12/03 02:38:28;;;;;;;0.20;0.20;;;;;;;5.10;100.00;98852.28;6214648;23;20051;-55
2021/12/03 02:41:31;;;;;;;1.02;0.73;;;;;;;5.09;100.00;98856.28;6214134;23;20067;-56
2021/12/03 02:44:34;;;;;;;0.30;0.30;;;;;;;5.12;100.00;98845.06;6214519;22;20031;-55
2021/12/03 02:47:38;;;;;;;1.17;0.75;;;;;;;5.10;100.00;98836.50;6213743;23;20043;-55
2021/12/03 02:50:40;;;;;;;1.27;1.17;;;;;;;5.15;100.00;98835.09;6213542;22;20352;-55
2021/12/03 02:53:43;;;;;;;0.50;0.50;;;;;;;5.11;100.00;98831.75;6213593;23;20519;-55
2021/12/03 02:56:47;;;;;;;0.50;0.50;;;;;;;5.13;100.00;98824.50;6213569;22;20027;-56
2021/12/03 02:59:50;;;;;;;0.30;0.30;;;;;;;5.10;100.00;98813.66;6212942;22;20690;-55
2021/12/03 03:02:54;;;;;;;0.38;0.38;;;;;;;5.07;100.00;98809.03;6213409;23;20892;-55
2021/12/03 03:05:59;;;;;;;1.65;0.90;;;;;;;5.25;100.00;98795.97;6213164;22;20028;-56
2021/12/03 03:09:08;;;;;;;0.90;0.90;;;;;;;5.27;100.00;98784.47;6213575;23;20055;-56
2021/12/03 03:12:13;;;;;;;1.95;0.75;;;;;;;5.22;100.00;98782.31;6213516;23;20094;-56
2021/12/03 03:15:17;;;;;;;0.45;0.43;;;;;;;5.17;100.00;98772.72;6213458;22;20455;-56
2021/12/03 03:18:23;;;;;;;0.75;0.70;;;;;;;5.17;100.00;98758.13;6213218;23;20067;-56
2021/12/03 03:21:28;;;;;;;0.65;0.65;;;;;;;5.12;100.00;98756.00;6213128;23;20024;-56
2021/12/03 03:24:31;;;;;;;1.70;1.60;;;;;;;5.22;100.00;98746.44;6212002;22;20036;-57
2021/12/03 03:27:35;;;;;;;0.30;0.30;;;;;;;5.33;100.00;98733.69;6212767;23;20070;-56
2021/12/03 03:30:40;;;;;;;2.50;0.60;;;;;;;5.37;100.00;98728.00;6212885;22;20028;-56
2021/12/03 03:33:43;;;;;;;0.90;0.90;;;;;;;5.34;100.00;98718.66;6212512;23;20062;-56
2021/12/03 03:36:46;;;;;;;2.05;0.85;;;;;;;5.14;100.00;98725.94;6213735;22;20463;-56
2021/12/03 03:39:49;;;;;;;0.40;0.40;;;;;;;5.16;100.00;98732.53;6213341;22;20468;-56
2021/12/03 03:42:52;;;;;;;1.27;1.10;;;;;;;5.05;100.00;98723.22;6213998;23;20078;-56
2021/12/03 03:45:56;;;;;;;2.72;1.15;;;;;;;5.08;100.00;98717.53;6213265;22;20023;-56
2021/12/03 03:48:59;;;;;;;0.90;0.90;;;;;;;5.18;100.00;98721.00;6214033;23;20369;-55
2021/12/03 03:52:03;;;;;;;1.38;1.27;;;;;;;5.30;100.00;98709.00;6214138;23;20345;-56
2021/12/03 03:55:08;;;;;;;1.55;0.82;;;;;;;5.25;100.00;98704.91;6214026;22;20028;-56
2021/12/03 03:58:11;;;;;;;3.00;0.63;;;;;;;5.26;100.00;98695.38;6213803;23;20062;-55
2021/12/03 04:01:15;;;;;;;0.52;0.52;;;;;;;5.23;100.00;98701.84;6214033;22;20035;-55
2021/12/03 04:04:18;;;;;;;0.70;0.70;;;;;;;5.29;100.00;98701.94;6213305;23;20534;-56
2021/12/03 04:07:21;;;;;;;16.35;1.23;;;;;;;5.36;100.00;98696.09;6213860;23;20028;-56
2021/12/03 04:10:25;;;;;;;0.38;0.38;;;;;;;5.32;100.00;98687.22;6213427;22;20047;-56
2021/12/03 04:13:28;;;;;;;3.85;1.30;;;;;;;5.32;100.00;98676.97;6214040;23;20095;-56
2021/12/03 04:16:31;;;;;;;0.68;0.68;;;;;;;5.36;100.00;98682.28;6213689;23;20028;-54
2021/12/03 04:19:35;;;;;;;0.90;0.90;;;;;;;5.37;100.00;98681.06;6212616;22;20023;-54
2021/12/03 04:22:40;;;;;;;2.33;1.08;;;;;;;5.37;100.00;98676.28;6212959;23;20103;-54
2021/12/03 04:25:44;;;;;;;0.80;0.70;;;;;;;5.36;100.00;98676.78;6213394;22;20075;-56
2021/12/03 04:28:47;;;;;;;1.52;0.85;;;;;;;5.32;100.00;98651.34;6213345;23;20349;-55
2021/12/03 04:31:50;;;;;;;1.05;1.05;;;;;;;5.39;100.00;98637.19;6213544;22;20040;-55
2021/12/03 04:34:54;;;;;;;0.50;0.50;;;;;;;5.39;100.00;98637.19;6213003;22;20048;-54
2021/12/03 04:37:57;;;;;;;3.35;1.58;;;;;;;5.43;100.00;98632.25;6213117;23;20070;-55
2021/12/03 04:41:01;;;;;;;0.38;0.38;;;;;;;5.36;100.00;98622.34;6213497;22;20071;-55
2021/12/03 04:44:05;;;;;;;12.45;2.00;;;;;;;5.38;100.00;98622.63;6213734;23;20070;-56
2021/12/03 04:47:07;;;;;;;0.65;0.65;;;;;;;5.43;100.00;98626.75;6213273;23;20353;-54
2021/12/03 04:50:12;;;;;;;0.95;0.88;;;;;;;5.40;100.00;98624.91;6213169;22;20358;-55
2021/12/03 04:53:17;;;;;;;0.75;0.63;;;;;;;5.50;100.00;98620.09;6213486;23;20070;-55
2021/12/03 04:56:20;;;;;;;1.48;1.00;;;;;;;5.54;100.00;98613.16;6213698;22;20051;-55
2021/12/03 04:59:24;;;;;;;1.40;1.30;;;;;;;5.53;100.00;98617.16;6213290;23;20086;-54
2021/12/03 05:02:27;;;;;;;2.75;0.60;;;;;;;5.59;100.00;98609.00;6213307;23;20028;-56
2021/12/03 05:05:32;;;;;;;0.40;0.40;;;;;;;5.54;100.00;98604.88;6212122;22;20104;-56
2021/12/03 05:08:36;;;;;;;0.60;0.60;;;;;;;5.61;100.00;98598.97;6212384;23;20055;-55
2021/12/03 05:11:39;;;;;;;1.25;1.25;;;;;;;5.61;100.00;98587.94;6212778;22;20040;-55
2021/12/03 05:14:42;;;;;;;1.95;1.20;;;;;;;5.62;100.00;98581.19;6211520;23;20027;-56
2021/12/03 05:17:45;;;;;;;0.73;0.55;;;;;;;5.65;100.00;98576.72;6213220;23;20024;-56
2021/12/03 05:20:51;;;;;;;2.17;0.95;;;;;;;5.64;100.00;98569.66;6213101;22;20452;-56
2021/12/03 05:23:53;;;;;;;1.65;0.60;;;;;;;5.68;100.00;98542.63;6212623;23;20047;-56
2021/12/03 05:26:57;;;;;;;0.70;0.70;;;;;;;5.66;100.00;98556.91;6212779;23;20023;-56
2021/12/03 05:30:00;;;;;;;0.73;0.65;;;;;;;5.67;100.00;98552.16;6212488;22;20338;-56
2021/12/03 05:33:04;;;;;;;3.15;1.02;;;;;;;5.66;100.00;98545.84;6213265;23;20027;-56
2021/12/03 05:36:07;;;;;;;1.98;0.82;;;;;;;5.70;100.00;98535.38;6212955;22;20456;-56
2021/12/03 05:39:10;;;;;;;6.07;1.08;;;;;;;5.75;100.00;98548.53;6214660;23;20473;-56
2021/12/03 05:42:13;;;;;;;0.50;0.50;;;;;;;5.72;100.00;98543.97;6215186;23;20039;-55
2021/12/03 05:45:23;;;;;;;0.63;0.50;;;;;;;5.82;100.00;98537.13;6215264;22;20027;-56
2021/12/03 05:48:26;;;;;;;0.55;0.55;;;;;;;5.83;100.00;98538.63;6215250;23;20492;-56
2021/12/03 05:51:30;;;;;;;0.45;0.45;;;;;;;5.85;100.00;98536.19;6215703;23;20525;-56
2021/12/03 05:54:33;;;;;;;0.38;0.38;;;;;;;5.84;100.00;98534.69;6214456;22;20052;-57
2021/12/03 05:57:36;;;;;;;0.65;0.40;;;;;;;5.92;100.00;98524.75;6215670;23;20071;-57
2021/12/03 06:00:42;;;;;;;0.47;0.47;;;;;;;5.97;100.00;98531.63;6214823;22;20468;-57
2021/12/03 06:03:47;;;;;;;0.77;0.77;;;;;;;5.97;100.00;98528.88;6214573;23;20034;-60
2021/12/03 06:06:49;;;;;;;5.13;1.15;;;;;;;5.94;100.00;98533.34;6215114;22;20341;-63
2021/12/03 06:09:52;;;;;;;1.00;1.00;;;;;;;6.06;100.00;98537.81;6214896;22;20353;-61
2021/12/03 06:12:56;;;;;;;1.08;0.75;;;;;;;6.07;100.00;98531.06;6214221;23;20028;-61
2021/12/03 06:15:59;;;;;;;1.58;0.63;;;;;;;6.12;100.00;98540.69;6214974;22;20112;-63
2021/12/03 06:19:02;;;;;;;1.33;1.00;;;;;;;6.18;100.00;98536.00;6215260;23;20127;-63
2021/12/03 06:22:05;;;;;;;0.80;0.80;;;;;;;6.19;100.00;98540.28;6214622;23;20346;-63
2021/12/03 06:25:10;;;;;;;7.07;1.95;;;;;;;5.91;100.00;98544.59;6214857;23;20027;-63
2021/12/03 06:28:13;;;;;;;0.30;0.30;;;;;;;5.93;100.00;98558.69;6215164;23;20409;-63
2021/12/03 06:31:16;;;;;;;1.58;1.48;;;;;;;5.84;100.00;98545.72;6214924;22;20026;-64
2021/12/03 06:34:19;;;;;;;1.88;1.08;;;;;;;5.84;100.00;98539.44;6214399;23;20469;-63
2021/12/03 06:37:22;;;;;;;1.27;1.17;;;;;;;5.91;100.00;98534.28;6214628;23;20033;-63
2021/12/03 06:40:27;;;;;;;0.77;0.77;;;;;;;5.82;100.00;98530.84;6214508;22;20480;-63
2021/12/03 06:43:30;;;;;;;1.05;0.95;;;;;;;5.83;100.00;98522.06;6214377;23;20071;-63
2021/12/03 06:46:33;;;;;;;1.40;1.05;;;;;;;5.90;100.00;98509.91;6213127;23;20028;-62
2021/12/03 06:49:36;;;;;;;0.35;0.35;;;;;;;5.96;100.00;98519.81;6214163;22;20070;-63
2021/12/03 06:52:40;;;;;;;0.55;0.52;;;;;;;5.97;100.00;98515.81;6214016;23;20063;-62
2021/12/03 06:56:32;;;;;;;2.97;0.98;;;;;;;5.87;100.00;98506.09;6214255;22;20024;-63
2021/12/03 06:59:12;;;;;;;0.63;0.63;;;;;;;5.93;100.00;98493.13;6214239;23;20022;-63
2021/12/03 07:02:16;;;;;;;1.13;0.90;;;;;;;6.02;100.00;98501.31;6214740;23;20027;-62
2021/12/03 07:05:19;;;;;;;1.58;0.75;;;;;;;6.04;100.00;98504.34;6214273;22;20078;-63
2021/12/03 07:08:22;;;;;;;4.68;1.40;;;;;;;6.06;100.00;98487.31;6214277;23;20031;-62
2021/12/03 07:11:25;;;;;;;3.20;1.58;;;;;;;6.04;100.00;98493.31;6214361;22;20137;-62
2021/12/03 07:14:27;;;;;;;1.17;0.80;;;;;;;6.09;100.00;98484.34;6214443;23;20461;-63
2021/12/03 07:17:32;;;;;;;1.02;0.88;;;;;;;6.10;100.00;98480.38;6213511;23;20028;-61
2021/12/03 07:20:35;;;;;;;5.28;1.27;;;;;;;6.02;100.00;98484.72;6214504;22;20067;-61
2021/12/03 07:23:39;;;;;;;2.17;1.23;;;;;;;6.17;100.00;98481.22;6213700;23;20091;-61
2021/12/03 07:26:42;;;;;;;2.70;0.93;;;;;;;6.20;100.00;98483.75;6213852;22;20585;-56
2021/12/03 07:29:47;;;;;;;1.80;1.10;;;;;;;6.23;100.00;98495.88;6213848;22;20042;-56
2021/12/03 07:32:50;;;;;;;1.27;1.10;;;;;;;6.24;100.00;98494.63;6213998;23;22181;-56
2021/12/03 07:35:53;;;;;;;2.63;0.68;;;;;;;6.29;100.00;98493.94;6213645;22;20468;-56
2021/12/03 07:38:56;;;;;;;1.50;0.70;;;;;;;6.27;100.00;98491.66;6213957;23;20074;-56
2021/12/03 07:41:59;;;;;;;3.50;1.75;;;;;;;6.29;100.00;98493.94;6214058;23;20027;-55
2021/12/03 07:45:06;;;;;;;1.80;0.82;;;;;;;6.28;100.00;98498.69;6214084;22;20031;-55
2021/12/03 07:48:09;;;;;;;1.85;1.45;;;;;;;6.36;100.00;98497.09;6213961;23;20028;-56
2021/12/03 07:51:14;;;;;;;0.43;0.43;;;;;;;6.68;100.00;98500.81;6213403;22;20052;-55
2021/12/03 07:54:18;;;;;;;2.17;0.95;;;;;;;6.73;100.00;98506.44;6213564;23;20024;-55
2021/12/03 07:57:20;;;;;;;0.98;0.82;;;;;;;6.80;100.00;98508.00;6213616;23;20082;-55
2021/12/03 08:00:24;;;;;;;6.05;2.30;;;;;;;6.90;100.00;98506.66;6213922;22;20019;-55
2021/12/03 08:03:27;;;;;;;3.47;1.92;;;;;;;6.64;100.00;98495.50;6213213;23;20484;-55
2021/12/03 08:06:31;;;;;;;7.63;1.95;;;;;;;6.64;100.00;98486.44;6213434;23;20023;-55
2021/12/03 08:09:34;;;;;;;10.45;3.20;;;;;;;6.59;100.00;98492.63;6213271;22;20023;-55
2021/12/03 08:12:39;;;;;;;3.95;1.40;;;;;;;6.75;100.00;98492.13;6213419;23;20063;-55
2021/12/03 08:15:42;;;;;;;2.90;1.70;;;;;;;7.16;100.00;98490.09;6213742;23;20045;-55
2021/12/03 08:18:46;;;;;;;4.57;2.17;;;;;;;7.49;100.00;98496.78;6212454;23;20100;-55
2021/12/03 08:21:48;;;;;;;4.38;1.63;;;;;;;7.73;100.00;98490.22;6213106;22;20071;-55
2021/12/03 08:24:51;;;;;;;5.30;3.28;;;;;;;8.03;100.00;98488.72;6213635;22;20060;-55
2021/12/03 08:27:55;;;;;;;6.03;1.92;;;;;;;8.17;100.00;98483.06;6213709;23;20525;-55
2021/12/03 08:30:57;;;;;;;7.72;1.50;;;;;;;8.29;100.00;98483.94;6213885;22;20024;-54
2021/12/03 08:34:00;;;;;;;1.95;1.65;;;;;;;8.41;100.00;98477.19;6214366;23;20504;-55
2021/12/03 08:37:06;;;;;;;2.92;1.58;;;;;;;8.55;100.00;98483.84;6213683;23;20079;-55
2021/12/03 08:40:09;;;;;;;4.03;2.15;;;;;;;8.63;100.00;98474.56;6213703;23;20028;-55
2021/12/03 08:43:12;;;;;;;0.80;0.80;;;;;;;8.70;100.00;98485.22;6213433;23;20075;-55
2021/12/03 08:46:22;;;;;;;4.50;1.85;;;;;;;8.76;100.00;98482.47;6214068;22;20055;-55
2021/12/03 08:50:13;;;;;;;1.85;0.57;;;;;;;8.83;100.00;98493.09;6213225;23;20448;-55
2021/12/03 08:53:05;;;;;;;1.45;1.35;;;;;;;8.95;100.00;98495.44;6212350;23;20349;-55
2021/12/03 08:56:07;;;;;;;1.17;1.17;;;;;;;9.12;100.00;98499.03;6213049;22;20023;-55
2021/12/03 08:59:14;;;;;;;6.82;1.35;;;;;;;9.24;100.00;98508.19;6212510;23;20075;-54
2021/12/03 09:02:18;;;;;;;9.13;1.27;;;;;;;9.31;100.00;98509.72;6212453;23;20043;-55
2021/12/03 09:05:21;;;;;;;10.13;1.58;;;;;;;9.41;100.00;98502.69;6213028;22;20094;-55
2021/12/03 09:08:24;;;;;;;3.50;1.00;;;;;;;9.57;100.00;98499.22;6213402;23;20027;-55
2021/12/03 09:11:29;;;;;;;4.18;1.95;;;;;;;9.61;100.00;98488.59;6213332;23;20023;-54
2021/12/03 09:14:38;;;;;;;1.70;1.58;;;;;;;9.70;100.00;98491.16;6212553;22;20027;-55
2021/12/03 09:21:22;;;;;;;14.65;1.65;;;;;;;9.79;100.00;98488.09;6213149;22;20096;-54
2021/12/03 09:24:26;;;;;;;2.58;0.85;;;;;;;9.96;100.00;98488.16;6212793;23;20027;-54
2021/12/03 09:27:29;;;;;;;0.57;0.52;;;;;;;9.98;100.00;98494.72;6212466;23;20023;-54
2021/12/03 09:30:37;;;;;;;3.50;1.10;;;;;;;10.07;100.00;98497.25;6212501;22;20101;-54
2021/12/03 09:33:41;;;;;;;4.97;0.98;;;;;;;10.04;100.00;98491.94;6212890;23;20027;-54
2021/12/03 09:36:45;;;;;;;3.03;1.20;;;;;;;10.01;100.00;98488.13;6212842;23;20457;-54
2021/12/03 09:39:50;;;;;;;6.10;1.38;;;;;;;10.12;100.00;98490.19;6212868;22;20031;-54
2021/12/03 09:42:53;;;;;;;1.65;0.95;;;;;;;10.17;100.00;98489.44;6212650;23;20082;-54
2021/12/03 09:46:08;;;;;;;1.52;0.60;;;;;;;10.34;100.00;98492.97;6212618;22;20066;-54
2021/12/03 09:55:37;;;;;;;2.40;0.88;;;;;;;10.30;100.00;98503.59;6212626;22;20406;-53
2021/12/03 10:02:11;;;;;;;4.20;1.58;;;;;;;9.96;100.00;98513.94;6212848;23;20082;-53
2021/12/03 10:14:59;;;;;;;0.50;0.45;;;;;;;10.21;100.00;98518.53;6212886;22;20090;-53
2021/12/03 10:21:29;;;;;;;2.75;0.70;;;;;;;10.29;100.00;98538.25;6211749;22;20027;-53
2021/12/03 10:27:58;;;;;;;2.70;1.00;;;;;;;10.35;100.00;98537.00;6213162;23;20062;-53
2021/12/03 10:34:41;;;;;;;8.10;1.27;;;;;;;10.48;100.00;98536.50;6214602;23;20043;-53
2021/12/03 10:47:49;;;;;;;7.40;1.55;;;;;;;10.54;100.00;98557.50;6214148;23;20024;-57
2021/12/03 10:51:14;;;;;;;3.35;1.05;;;;;;;10.69;100.00;98551.66;6214416;22;20098;-58
2021/12/03 10:57:58;;;;;;;2.97;1.50;;;;;;;10.75;100.00;98560.00;6213947;23;20023;-58
2021/12/03 11:46:09;;;;;;;0.80;0.68;;;;;;;11.05;100.00;98499.66;6214252;22;20031;-64
2021/12/03 11:49:52;;;;;;;0.20;0.20;;;;;;;11.04;100.00;98500.94;6213145;23;20027;-60
2021/12/03 12:07:12;;;;;;;0.28;0.28;;;;;;;10.96;100.00;98491.63;6212653;22;20091;-59
2021/12/03 12:34:57;;;;;;;0.95;0.55;;;;;;;11.11;100.00;98467.72;6212889;23;20147;-58
2021/12/03 13:02:19;;;;;;;5.93;0.80;;;;;;;11.02;100.00;98472.84;6213521;22;20055;-58
2021/12/03 13:15:25;;;;;;;7.10;0.40;;;;;;;10.89;100.00;98447.56;6211953;22;20051;-58
2021/12/03 13:28:33;;;;;;;4.15;1.27;;;;;;;10.97;100.00;98409.56;6213393;23;20024;-58
2021/12/03 14:27:42;;;;;;;5.63;1.88;;;;;;;10.82;100.00;98386.84;6236139;22;20032;-54
2021/12/03 14:41:42;;;;;;;17.98;3.65;;;;;;;10.60;100.00;98382.09;6214063;22;20035;-54
2021/12/03 14:57:55;;;;;;;4.05;2.13;;;;;;;10.24;100.00;98358.94;6212303;22;20074;-54
2021/12/03 15:01:40;;;;;;;2.83;2.25;;;;;;;10.27;100.00;98360.69;6213704;22;20031;-53
2021/12/03 15:07:52;;;;;;;10.02;1.98;;;;;;;10.20;100.00;98344.53;6212922;23;20028;-53
2021/12/03 15:33:58;;;;;;;1.10;0.73;;;;;;;10.01;100.00;98310.16;6210631;23;20035;-59
2021/12/03 15:37:14;;;;;;;1.85;0.90;;;;;;;9.95;100.00;98306.63;6213022;22;20342;-59
2021/12/03 15:57:13;;;;;;;;;;;;;;;9.62;100.00;98295.56;6205500;22;20054;-59
2021/12/03 16:07:07;;;;;;;0.20;0.20;;;;;;;9.44;100.00;98290.53;6212711;22;19977;-55
2021/12/03 16:46:36;;;;;;;1.17;0.35;;;;;;;9.26;100.00;98299.34;6212196;23;19918;-55
2021/12/03 16:53:06;;;;;;;2.22;1.08;;;;;;;9.27;100.00;98298.09;6208647;23;20464;-55
2021/12/03 16:56:15;;;;;;;1.67;0.55;;;;;;;9.21;100.00;98286.22;6211591;23;20421;-55
2021/12/03 16:59:19;;;;;;;3.30;1.30;;;;;;;9.14;100.00;98288.22;6116717;23;20124;-55
2021/12/03 17:02:33;;;;;;;3.75;0.77;;;;;;;9.05;100.00;98282.91;6202101;22;20086;-59
2021/12/03 17:09:23;;;;;;;0.85;0.85;;;;;;;8.94;100.00;98282.91;6174930;22;20029;-58
2021/12/03 17:12:37;;;;;;;0.40;0.40;;;;;;;8.98;100.00;98277.88;6011149;23;20316;-57
2021/12/03 17:49:54;;;;;;;1.63;1.15;;;;;;;8.78;100.00;98252.34;6195828;23;20020;-80
2021/12/03 17:56:20;;;;;;;;;;;;;;;8.76;100.00;98266.75;6217126;23;20027;-81
2021/12/03 17:59:33;;;;;;;4.45;0.95;;;;;;;8.87;100.00;98261.22;6220878;23;19980;-85
2021/12/03 18:49:37;;;;;;;27.70;2.55;;;;;;;8.25;100.00;98220.69;6219766;23;20043;-95
2021/12/03 18:55:56;;;;;;;11.32;3.72;;;;;;;8.21;100.00;98211.06;6218147;23;20028;-89
2021/12/03 18:59:05;;;;;;;5.85;2.53;;;;;;;8.17;100.00;98216.84;6218428;23;20528;-86
2021/12/03 19:02:09;;;;;;;8.32;3.28;;;;;;;8.14;100.00;98228.19;6215614;23;20462;-83
2021/12/03 19:08:51;;;;;;;1.73;1.47;;;;;;;8.02;100.00;98230.16;6182130;22;20055;-51
2021/12/03 19:12:06;;;;;;;11.52;4.18;;;;;;;8.02;100.00;98223.84;6181134;22;20396;-51
2021/12/03 19:15:10;;;;;;;2.92;2.65;;;;;;;7.97;100.00;98224.59;6183257;23;20449;-51
2021/12/03 19:18:14;;;;;;;8.65;4.03;;;;;;;8.02;100.00;98221.09;6183138;22;20397;-51
2021/12/03 19:21:23;;;;;;;9.85;3.20;;;;;;;8.07;100.00;98217.59;6183492;23;20051;-51
2021/12/03 19:24:27;;;;;;;4.93;3.70;;;;;;;8.09;100.00;98226.16;6181593;23;20051;-51
2021/12/03 19:27:30;;;;;;;8.52;2.65;;;;;;;8.10;100.00;98211.78;6182470;22;20031;-51
2021/12/03 19:30:33;;;;;;;5.30;3.45;;;;;;;8.13;100.00;98210.03;6183452;23;20094;-51
2021/12/03 19:33:37;;;;;;;5.07;2.20;;;;;;;8.11;100.00;98199.44;6182182;23;20019;-51
2021/12/03 19:36:44;;;;;;;6.03;2.20;;;;;;;8.05;100.00;98192.38;6177821;22;20111;-51
2021/12/03 19:39:48;;;;;;;2.15;1.42;;;;;;;8.03;100.00;98194.88;6182463;23;20075;-51
2021/12/03 19:43:05;;;;;;;4.40;1.77;;;;;;;7.99;100.00;98184.03;6215354;22;20148;-51
2021/12/03 19:46:10;;;;;;;1.88;1.60;;;;;;;7.98;100.00;98176.97;6183353;23;20071;-51
2021/12/03 19:52:27;;;;;;;2.25;2.03;;;;;;;7.80;100.00;98171.84;6182889;22;20023;-51
2021/12/03 19:55:30;;;;;;;3.17;2.53;;;;;;;7.78;100.00;98171.59;6182727;23;20079;-51
2021/12/03 19:58:33;;;;;;;3.22;2.28;;;;;;;7.77;100.00;98178.41;6214842;23;20070;-51
2021/12/03 20:01:37;;;;;;;7.75;2.80;;;;;;;7.70;100.00;98180.88;6182181;22;20532;-51
2021/12/03 20:04:41;;;;;;;3.25;1.95;;;;;;;7.76;100.00;98176.13;6182607;23;20504;-51
2021/12/03 20:07:45;;;;;;;27.83;3.28;;;;;;;7.80;100.00;98176.63;6183123;22;20350;-51
2021/12/03 20:10:50;;;;;;;9.10;1.92;;;;;;;7.99;100.00;98172.19;6181004;23;20027;-51
2021/12/03 20:13:59;;;;;;;4.40;1.88;;;;;;;7.97;100.00;98169.16;6180970;23;20032;-51
2021/12/03 20:17:16;;;;;;;3.15;1.77;;;;;;;7.93;100.00;98163.84;6182324;22;20051;-51
2021/12/03 20:20:19;;;;;;;8.02;2.83;;;;;;;7.85;100.00;98151.72;6182538;23;20079;-51
2021/12/03 20:26:49;;;;;;;2.00;1.80;;;;;;;7.84;100.00;98166.09;6182201;22;20032;-50
2021/12/03 20:29:56;;;;;;;2.08;1.90;;;;;;;7.82;100.00;98168.59;6181325;23;20028;-51
2021/12/03 20:33:05;;;;;;;9.40;1.95;;;;;;;7.80;100.00;98179.41;6182063;22;20031;-50
2021/12/03 20:39:36;;;;;;;13.32;2.67;;;;;;;7.84;100.00;98171.63;6182497;23;20075;-51
2021/12/03 20:43:10;;;;;;;8.30;1.95;;;;;;;7.89;100.00;98173.66;6180263;23;20086;-50
2021/12/03 20:49:15;;;;;;;1.35;1.17;;;;;;;7.88;100.00;98159.06;6215875;23;20051;-51
2021/12/03 21:08:52;;;;;;;4.03;2.08;;;;;;;7.57;100.00;98159.94;6179183;23;27564;-51
2021/12/03 21:11:59;;;;;;;8.80;1.63;;;;;;;7.49;100.00;98147.03;6181944;22;20377;-51
2021/12/03 21:15:26;;;;;;;7.25;2.15;;;;;;;7.50;100.00;98138.22;6198093;23;20063;-51
2021/12/03 21:18:35;;;;;;;3.70;2.90;;;;;;;7.47;100.00;98138.47;6180177;23;20067;-51
2021/12/03 21:24:44;;;;;;;3.30;2.00;;;;;;;7.31;100.00;98130.81;6180647;23;20060;-51
2021/12/03 21:28:02;;;;;;;3.85;1.75;;;;;;;7.29;100.00;98111.94;6162728;23;20619;-51
2021/12/03 21:31:33;;;;;;;7.38;1.27;;;;;;;7.29;100.00;98111.19;6162450;23;20422;-51
2021/12/03 21:44:25;;;;;;;;;;;;;;;7.29;100.00;98105.66;6181991;23;20032;-51
2021/12/03 21:47:28;;;;;;;1.63;1.10;;;;;;;7.21;100.00;98105.34;6181265;22;19919;-51
2021/12/03 21:50:31;;;;;;;2.70;2.45;;;;;;;7.21;100.00;98101.84;6179849;23;20028;-50
2021/12/03 21:53:34;;;;;;;1.63;1.33;;;;;;;7.22;100.00;98106.88;6181417;22;20056;-50
2021/12/03 21:56:38;;;;;;;3.45;1.85;;;;;;;7.22;100.00;98101.34;6180380;22;20024;-51
2021/12/03 21:59:41;;;;;;;6.75;2.28;;;;;;;7.19;100.00;98094.00;6180930;23;20079;-51
2021/12/03 22:02:44;;;;;;;4.13;2.83;;;;;;;7.03;100.00;98089.16;6181336;22;20035;-51
2021/12/03 22:05:50;;;;;;;6.38;2.58;;;;;;;6.98;100.00;98091.88;6163541;23;20055;-51
2021/12/03 22:08:56;;;;;;;5.80;2.72;;;;;;;6.93;100.00;98093.34;6133459;23;20138;-51
2021/12/03 22:11:58;;;;;;;9.40;2.63;;;;;;;6.87;100.00;98085.03;6123281;23;20100;-51
2021/12/03 22:15:03;;;;;;;14.48;4.07;;;;;;;6.85;100.00;98072.94;6150881;23;20031;-51
2021/12/03 22:18:07;;;;;;;5.93;2.20;;;;;;;6.79;100.00;98070.16;6151403;23;20029;-51
2021/12/03 22:21:11;;;;;;;2.67;2.25;;;;;;;6.86;100.00;98063.41;6151656;23;20077;-51
2021/12/03 22:24:14;;;;;;;5.25;2.55;;;;;;;6.84;100.00;98065.91;6151052;23;20072;-51
2021/12/03 22:27:17;;;;;;;4.43;2.75;;;;;;;6.67;100.00;98059.50;6152910;23;20086;-51
2021/12/03 22:30:22;;;;;;;2.65;2.45;;;;;;;6.44;100.00;98057.81;6153791;23;20091;-51
2021/12/03 22:33:26;;;;;;;5.25;2.65;;;;;;;6.39;100.00;98058.53;6153599;23;20045;-51
2021/12/03 22:36:29;;;;;;;5.22;2.17;;;;;;;6.35;100.00;98052.44;6135482;23;20032;-51